Time;durP1;ratioP1;P1;durP2;ratioP2;P2;SDS_P1;SDS_P2;PMS_P1;PMS_P2;Temp;Humidity;BMP_temperature;BMP_pressure;BME280_temperature;BME280_humidity;BME280_pressure;Samples;Min_cycle;Max_cycle;Signal;HPM_P1;HPM_P2
2022/08/09 00:01:51;;;;;;;6.67;3.50;;;18.60;99.90;;;;;;5019750;28;20219;-48
2022/08/09 00:04:24;;;;;;;3.60;3.00;;;18.70;99.90;;;;;;5021100;28;20459;-50
2022/08/09 00:07:07;;;;;;;3.53;3.13;;;18.70;99.90;;;;;;5020859;28;20204;-47
2022/08/09 00:09:37;;;;;;;4.73;3.47;;;18.70;99.90;;;;;;5019630;28;20578;-49
2022/08/09 00:12:05;;;;;;;3.67;3.27;;;18.60;99.90;;;;;;5016339;28;20286;-49
2022/08/09 00:14:56;;;;;;;5.77;3.50;;;18.50;99.90;;;;;;5020396;28;20598;-48
2022/08/09 00:17:38;;;;;;;4.00;3.30;;;18.60;99.90;;;;;;5018954;28;20845;-47
2022/08/09 00:20:28;;;;;;;3.63;2.97;;;18.60;99.90;;;;;;5020581;28;20212;-50
2022/08/09 00:23:00;;;;;;;5.43;3.40;;;18.50;99.90;;;;;;5016510;28;20640;-49
2022/08/09 00:25:47;;;;;;;4.07;3.20;;;18.50;99.90;;;;;;5021061;28;20585;-48
2022/08/09 00:28:18;;;;;;;4.47;3.30;;;18.40;99.90;;;;;;5020351;28;20214;-48
2022/08/09 00:30:57;;;;;;;5.67;3.37;;;18.30;99.90;;;;;;5019659;28;20294;-48
2022/08/09 00:33:25;;;;;;;5.20;3.07;;;18.30;99.90;;;;;;5019724;28;20224;-50
2022/08/09 00:36:14;;;;;;;4.67;3.20;;;18.20;99.90;;;;;;5020393;28;20231;-53
2022/08/09 00:38:47;;;;;;;4.50;3.27;;;18.20;99.90;;;;;;5017991;28;20652;-52
2022/08/09 00:41:19;;;;;;;5.50;3.60;;;18.40;99.90;;;;;;5019164;28;20288;-50
2022/08/09 00:44:06;;;;;;;6.87;3.33;;;18.40;99.90;;;;;;5019564;28;20211;-52
2022/08/09 00:46:57;;;;;;;3.83;3.20;;;18.30;99.90;;;;;;5018679;28;20213;-52
2022/08/09 00:49:33;;;;;;;4.63;3.30;;;18.20;99.90;;;;;;5020383;28;20211;-52
2022/08/09 00:52:11;;;;;;;3.53;3.23;;;18.20;99.90;;;;;;5020133;28;20213;-51
2022/08/09 00:55:02;;;;;;;4.90;3.60;;;18.10;99.90;;;;;;5019442;28;20271;-52
2022/08/09 00:57:31;;;;;;;3.27;2.93;;;17.90;99.90;;;;;;5020311;28;20209;-51
2022/08/09 01:00:06;;;;;;;5.77;3.30;;;18.00;99.90;;;;;;5019239;28;21113;-52
2022/08/09 01:02:55;;;;;;;4.03;3.03;;;18.00;99.90;;;;;;5019721;28;20207;-52
2022/08/09 01:05:36;;;;;;;5.63;3.50;;;17.90;99.90;;;;;;5013347;28;20537;-53
2022/08/09 01:08:40;;;;;;;5.50;3.73;;;17.80;99.90;;;;;;5046553;28;20331;-56
2022/08/09 01:11:44;;;;;;;7.80;3.97;;;17.70;99.90;;;;;;5019101;28;20274;-50
2022/08/09 01:14:31;;;;;;;6.43;3.83;;;17.70;99.90;;;;;;5017580;28;20655;-50
2022/08/09 01:17:08;;;;;;;7.97;3.80;;;17.60;99.90;;;;;;5019219;28;20224;-52
2022/08/09 01:19:49;;;;;;;6.67;3.70;;;17.60;99.90;;;;;;5018791;28;20199;-50
2022/08/09 01:22:52;;;;;;;4.07;3.37;;;17.60;99.90;;;;;;5025901;28;20233;-50
2022/08/09 01:25:40;;;;;;;4.93;3.23;;;17.60;99.90;;;;;;5019546;28;20213;-51
2022/08/09 01:28:15;;;;;;;4.00;3.03;;;17.50;99.90;;;;;;5017868;28;20212;-51
2022/08/09 01:30:45;;;;;;;3.37;3.00;;;17.60;99.90;;;;;;5049992;28;20209;-51
2022/08/09 01:33:22;;;;;;;4.00;3.03;;;17.60;99.90;;;;;;5019221;28;20209;-53
2022/08/09 01:36:16;;;;;;;3.63;2.97;;;17.60;99.90;;;;;;5020101;28;20230;-53
2022/08/09 01:38:47;;;;;;;4.90;3.30;;;17.70;99.90;;;;;;5019547;28;20282;-53
2022/08/09 01:41:20;;;;;;;5.13;2.90;;;17.70;99.90;;;;;;5019304;28;20292;-52
2022/08/09 01:43:55;;;;;;;3.70;2.53;;;17.80;99.90;;;;;;5018814;28;20301;-52
2022/08/09 01:46:34;;;;;;;6.87;2.93;;;17.80;99.90;;;;;;5017853;28;20250;-50
2022/08/09 01:49:36;;;;;;;3.63;2.83;;;17.80;99.90;;;;;;5018488;28;20712;-52
2022/08/09 01:52:14;;;;;;;3.43;2.67;;;17.70;99.90;;;;;;5007533;28;20591;-53
2022/08/09 01:54:49;;;;;;;2.47;2.27;;;17.70;99.90;;;;;;5018033;28;20730;-51
2022/08/09 01:57:28;;;;;;;3.90;2.80;;;17.60;99.90;;;;;;5019295;28;20660;-51
2022/08/09 02:00:09;;;;;;;3.47;2.93;;;17.40;99.90;;;;;;5018931;28;20339;-52
2022/08/09 02:02:57;;;;;;;4.67;3.10;;;17.40;99.90;;;;;;5017033;28;20208;-50
2022/08/09 02:05:25;;;;;;;3.77;2.83;;;17.50;99.90;;;;;;5018363;28;20228;-51
2022/08/09 02:08:21;;;;;;;5.90;3.10;;;17.40;99.90;;;;;;5020004;28;20209;-53
2022/08/09 02:11:13;;;;;;;3.27;2.67;;;17.40;99.90;;;;;;5024788;28;20205;-51
2022/08/09 02:13:45;;;;;;;5.57;2.70;;;17.40;99.90;;;;;;5018744;28;20212;-51
2022/08/09 02:16:34;;;;;;;3.50;2.83;;;17.50;99.90;;;;;;5020814;28;20270;-51
2022/08/09 02:19:22;;;;;;;6.97;3.40;;;17.30;99.90;;;;;;5021621;28;20213;-53
2022/08/09 02:21:57;;;;;;;3.40;3.07;;;17.30;99.90;;;;;;5022381;28;20197;-51
2022/08/09 02:24:34;;;;;;;3.50;3.07;;;17.20;99.90;;;;;;5022289;28;20608;-52
2022/08/09 02:27:21;;;;;;;3.60;3.30;;;17.20;99.90;;;;;;5020966;28;20208;-52
2022/08/09 02:30:09;;;;;;;4.93;3.10;;;17.30;99.90;;;;;;5021186;28;20293;-50
2022/08/09 02:32:43;;;;;;;3.57;3.13;;;17.20;99.90;;;;;;5020747;28;20240;-52
2022/08/09 02:35:19;;;;;;;6.03;3.13;;;17.30;99.90;;;;;;5022265;28;20213;-51
2022/08/09 02:38:09;;;;;;;5.23;3.40;;;17.30;99.90;;;;;;5027923;28;20294;-52
2022/08/09 02:40:41;;;;;;;8.67;3.57;;;17.40;99.90;;;;;;5021930;28;20205;-51
2022/08/09 02:43:10;;;;;;;4.20;3.80;;;17.20;99.90;;;;;;5019930;28;20709;-51
2022/08/09 02:45:43;;;;;;;8.03;4.10;;;17.20;99.90;;;;;;5021591;28;20224;-51
2022/08/09 02:48:19;;;;;;;7.23;3.67;;;17.10;99.90;;;;;;5021220;28;20204;-51
2022/08/09 02:50:59;;;;;;;3.97;3.10;;;17.10;99.90;;;;;;5028143;28;20215;-51
2022/08/09 02:53:36;;;;;;;7.87;4.20;;;17.20;99.90;;;;;;5020938;28;20247;-52
2022/08/09 02:56:05;;;;;;;7.20;3.40;;;17.30;99.90;;;;;;5021420;28;20236;-52
2022/08/09 02:58:33;;;;;;;5.20;3.80;;;17.40;99.90;;;;;;5021616;28;20217;-51
2022/08/09 03:01:05;;;;;;;5.30;3.80;;;17.30;99.90;;;;;;5021136;28;20193;-52
2022/08/09 03:03:36;;;;;;;6.67;3.33;;;17.20;99.90;;;;;;5020500;28;20267;-51
2022/08/09 03:06:25;;;;;;;4.50;3.43;;;17.20;99.90;;;;;;5021869;28;20211;-52
2022/08/09 03:08:55;;;;;;;3.90;3.57;;;17.30;99.90;;;;;;5028844;28;20206;-52
2022/08/09 03:11:25;;;;;;;7.57;4.33;;;17.20;99.90;;;;;;5019512;28;20204;-53
2022/08/09 03:14:14;;;;;;;6.97;3.43;;;17.30;99.90;;;;;;5021511;28;20209;-50
2022/08/09 03:16:45;;;;;;;4.40;3.83;;;17.20;99.90;;;;;;5020857;28;20235;-52
2022/08/09 03:19:21;;;;;;;4.83;3.37;;;17.10;99.90;;;;;;5022379;28;20209;-49
2022/08/09 03:22:10;;;;;;;3.77;3.33;;;17.00;99.90;;;;;;5021153;28;20331;-51
2022/08/09 03:24:56;;;;;;;7.20;4.30;;;17.00;99.90;;;;;;5021244;28;20212;-52
2022/08/09 03:27:47;;;;;;;8.10;4.33;;;16.80;99.90;;;;;;5020614;28;20721;-53
2022/08/09 03:30:15;;;;;;;4.83;3.90;;;16.70;99.90;;;;;;5021198;28;20255;-52
2022/08/09 03:33:12;;;;;;;5.13;3.57;;;16.70;99.90;;;;;;5048222;28;20591;-52
2022/08/09 03:35:50;;;;;;;8.97;4.00;;;16.90;99.90;;;;;;5019936;28;20249;-50
2022/08/09 03:38:39;;;;;;;4.40;4.00;;;16.70;99.90;;;;;;5020601;28;20239;-52
2022/08/09 03:41:13;;;;;;;5.70;3.70;;;16.80;99.90;;;;;;5021504;28;20221;-52
2022/08/09 03:43:46;;;;;;;6.00;3.97;;;16.70;99.90;;;;;;5021397;28;20664;-53
2022/08/09 03:46:37;;;;;;;5.00;4.07;;;16.60;99.90;;;;;;5018815;28;20212;-51
2022/08/09 03:49:06;;;;;;;5.97;4.13;;;16.70;99.90;;;;;;5020756;28;20208;-50
2022/08/09 03:51:41;;;;;;;4.70;4.30;;;16.70;99.90;;;;;;5020723;28;20212;-52
2022/08/09 03:54:30;;;;;;;6.17;4.13;;;16.70;99.90;;;;;;5019870;28;20245;-53
2022/08/09 03:57:03;;;;;;;4.57;3.90;;;16.70;99.90;;;;;;5020143;28;20224;-51
2022/08/09 03:59:48;;;;;;;4.87;3.70;;;16.80;99.90;;;;;;5020225;28;20271;-52
2022/08/09 04:02:28;;;;;;;5.53;4.57;;;16.80;99.90;;;;;;5019785;28;20300;-51
2022/08/09 04:04:59;;;;;;;6.73;4.20;;;16.80;99.90;;;;;;5019050;28;20201;-52
2022/08/09 04:07:35;;;;;;;7.20;4.27;;;16.80;99.90;;;;;;5019838;28;20203;-51
2022/08/09 04:10:24;;;;;;;5.33;4.67;;;16.80;99.90;;;;;;5020492;28;20221;-52
2022/08/09 04:12:59;;;;;;;8.30;4.20;;;16.60;99.90;;;;;;5019604;28;20200;-52
2022/08/09 04:15:30;;;;;;;6.17;4.53;;;16.50;99.90;;;;;;5020865;28;20693;-52
2022/08/09 04:18:18;;;;;;;5.50;4.20;;;16.60;99.90;;;;;;5018765;28;20209;-51
2022/08/09 04:20:51;;;;;;;6.80;4.50;;;16.60;99.90;;;;;;5018557;28;20205;-50
2022/08/09 04:23:22;;;;;;;6.77;4.57;;;16.70;99.90;;;;;;5019214;28;20209;-52
2022/08/09 04:25:54;;;;;;;5.27;4.40;;;16.60;99.90;;;;;;5020694;28;20221;-51
2022/08/09 04:28:34;;;;;;;8.40;4.80;;;16.60;99.90;;;;;;5019901;28;20220;-52
2022/08/09 04:31:16;;;;;;;8.17;4.70;;;16.60;99.90;;;;;;5020637;28;20272;-51
2022/08/09 04:33:47;;;;;;;5.30;4.43;;;16.60;99.90;;;;;;5019542;28;20255;-51
2022/08/09 04:36:28;;;;;;;8.23;4.97;;;16.50;99.90;;;;;;5019725;28;20634;-51
2022/08/09 04:39:04;;;;;;;7.83;4.70;;;16.40;99.90;;;;;;5018970;28;20290;-51
2022/08/09 04:41:33;;;;;;;6.50;4.23;;;16.40;99.90;;;;;;5020140;28;20208;-55
2022/08/09 04:44:11;;;;;;;7.87;4.83;;;16.40;99.90;;;;;;5026552;28;20575;-50
2022/08/09 04:46:41;;;;;;;6.17;4.03;;;16.50;99.90;;;;;;5019493;28;20249;-52
2022/08/09 04:49:31;;;;;;;6.60;4.27;;;16.50;99.90;;;;;;5020769;28;20683;-51
2022/08/09 04:52:21;;;;;;;7.27;4.70;;;16.40;99.90;;;;;;5018922;28;20204;-50
2022/08/09 04:54:58;;;;;;;6.37;5.00;;;16.40;99.90;;;;;;5020158;28;20240;-52
2022/08/09 04:57:26;;;;;;;6.27;4.70;;;16.30;99.90;;;;;;5019050;28;20243;-50
2022/08/09 05:00:13;;;;;;;7.47;4.80;;;16.20;99.90;;;;;;5019662;28;20211;-51
2022/08/09 05:02:43;;;;;;;5.40;4.53;;;16.30;99.90;;;;;;5018944;28;20295;-50
2022/08/09 05:05:19;;;;;;;8.20;4.73;;;16.20;99.90;;;;;;5020077;28;20266;-52
2022/08/09 05:08:06;;;;;;;8.33;5.03;;;16.30;99.90;;;;;;5025158;28;20206;-53
2022/08/09 05:10:33;;;;;;;8.93;5.20;;;16.30;99.90;;;;;;5015307;28;20280;-50
2022/08/09 05:13:03;;;;;;;8.03;5.00;;;16.30;99.90;;;;;;5019750;28;20204;-51
2022/08/09 05:15:30;;;;;;;6.80;4.73;;;16.30;99.90;;;;;;5019473;28;20244;-51
2022/08/09 05:18:08;;;;;;;6.50;5.27;;;16.40;99.90;;;;;;5019257;28;20204;-50
2022/08/09 05:21:04;;;;;;;6.23;5.50;;;16.30;99.90;;;;;;5019237;28;20212;-51
2022/08/09 05:23:51;;;;;;;6.10;5.30;;;16.30;99.90;;;;;;5019187;28;20201;-51
2022/08/09 05:26:27;;;;;;;6.43;5.37;;;16.40;99.90;;;;;;5019003;28;20640;-52
2022/08/09 05:29:20;;;;;;;7.93;5.37;;;16.40;99.90;;;;;;5018344;28;20680;-51
2022/08/09 05:32:00;;;;;;;7.47;5.67;;;16.40;99.90;;;;;;5018723;28;20201;-51
2022/08/09 05:34:30;;;;;;;7.57;5.30;;;16.40;99.90;;;;;;5020472;28;20220;-51
2022/08/09 05:37:04;;;;;;;6.97;5.37;;;16.40;99.90;;;;;;5017138;28;20370;-52
2022/08/09 05:39:37;;;;;;;6.97;5.70;;;16.40;99.90;;;;;;5019127;28;20723;-52
2022/08/09 05:42:12;;;;;;;8.40;5.43;;;16.50;99.90;;;;;;5018310;28;20261;-51
2022/08/09 05:44:49;;;;;;;8.60;5.47;;;16.70;99.90;;;;;;5019759;28;20247;-52
2022/08/09 05:47:22;;;;;;;9.00;5.90;;;16.80;99.90;;;;;;5019295;28;20296;-50
2022/08/09 05:49:50;;;;;;;8.80;5.80;;;16.80;99.90;;;;;;5019436;28;20223;-50
2022/08/09 05:52:41;;;;;;;8.70;5.23;;;16.80;99.90;;;;;;5022195;28;20217;-51
2022/08/09 05:55:11;;;;;;;9.23;5.43;;;16.90;99.90;;;;;;5020441;28;20282;-51
2022/08/09 05:57:47;;;;;;;10.47;5.60;;;16.90;99.90;;;;;;5022846;28;20222;-51
2022/08/09 06:00:22;;;;;;;8.20;5.83;;;16.90;99.90;;;;;;5012966;28;20208;-52
2022/08/09 06:02:49;;;;;;;9.27;5.27;;;17.00;99.90;;;;;;5022499;28;20292;-51
2022/08/09 06:05:27;;;;;;;7.10;5.60;;;17.00;99.90;;;;;;5022850;28;20209;-51
2022/08/09 06:08:17;;;;;;;6.27;5.23;;;16.90;99.90;;;;;;5022940;28;20212;-51
2022/08/09 06:10:54;;;;;;;10.27;6.70;;;17.00;99.90;;;;;;5022798;28;20197;-52
2022/08/09 06:13:30;;;;;;;9.07;5.97;;;16.90;99.90;;;;;;5023098;28;20205;-52
2022/08/09 06:16:01;;;;;;;7.10;5.30;;;16.90;99.90;;;;;;5020393;28;20205;-51
2022/08/09 06:18:32;;;;;;;7.20;5.87;;;17.10;99.90;;;;;;5017979;28;20212;-52
2022/08/09 06:21:03;;;;;;;6.80;5.77;;;17.30;99.90;;;;;;5022790;28;20798;-52
2022/08/09 06:23:32;;;;;;;6.43;5.57;;;17.30;99.90;;;;;;5018782;28;20291;-52
2022/08/09 06:26:21;;;;;;;12.17;5.70;;;17.40;99.90;;;;;;5023025;28;20221;-52
2022/08/09 06:28:56;;;;;;;10.10;6.07;;;17.40;99.90;;;;;;5022133;28;20204;-50
2022/08/09 06:31:29;;;;;;;7.23;5.83;;;17.50;99.90;;;;;;5022655;28;20301;-51
2022/08/09 06:34:24;;;;;;;10.40;6.00;;;17.60;99.90;;;;;;5021966;28;20216;-51
2022/08/09 06:36:56;;;;;;;7.70;5.90;;;17.60;99.90;;;;;;5021936;28;20743;-52
2022/08/09 06:39:27;;;;;;;7.47;5.70;;;17.60;99.90;;;;;;5037224;28;20209;-52
2022/08/09 06:42:16;;;;;;;6.83;5.70;;;17.80;99.90;;;;;;5022314;28;20683;-51
2022/08/09 06:44:47;;;;;;;7.07;5.70;;;17.90;99.90;;;;;;5023117;28;20202;-50
2022/08/09 06:47:21;;;;;;;8.23;6.10;;;18.00;99.90;;;;;;5021803;28;20688;-50
2022/08/09 06:49:49;;;;;;;9.63;5.97;;;18.10;99.90;;;;;;5022983;28;20727;-49
2022/08/09 06:52:47;;;;;;;10.40;6.90;;;18.30;99.90;;;;;;5021816;28;20258;-47
2022/08/09 06:55:20;;;;;;;9.60;5.90;;;18.20;99.90;;;;;;5021721;28;20323;-48
2022/08/09 06:57:52;;;;;;;8.87;6.17;;;18.50;99.90;;;;;;5019128;28;20221;-49
2022/08/09 07:00:33;;;;;;;6.73;5.47;;;18.70;99.90;;;;;;5021967;28;20296;-48
2022/08/09 07:03:22;;;;;;;10.63;5.27;;;18.90;99.90;;;;;;5020139;28;20577;-49
2022/08/09 07:05:57;;;;;;;9.60;6.07;;;19.20;99.90;;;;;;5036912;28;20214;-50
2022/08/09 07:08:31;;;;;;;8.63;5.40;;;19.50;99.90;;;;;;5028289;28;20619;-48
2022/08/09 07:11:02;;;;;;;8.33;5.23;;;19.50;99.90;;;;;;5036218;28;20227;-50
2022/08/09 07:13:32;;;;;;;7.53;5.03;;;19.70;99.90;;;;;;5016824;28;20228;-51
2022/08/09 07:16:19;;;;;;;6.83;5.30;;;19.80;99.90;;;;;;5021176;28;20265;-51
2022/08/09 07:19:10;;;;;;;5.27;4.77;;;19.60;99.90;;;;;;5021783;28;20803;-50
2022/08/09 07:21:44;;;;;;;8.90;4.50;;;19.70;99.90;;;;;;5028014;28;20649;-49
2022/08/09 07:24:25;;;;;;;7.33;4.77;;;19.60;99.90;;;;;;5020326;28;20214;-51
2022/08/09 07:27:12;;;;;;;5.53;4.30;;;19.70;99.90;;;;;;5026510;28;20287;-52
2022/08/09 07:30:03;;;;;;;6.33;5.00;;;19.90;99.90;;;;;;5047792;28;20623;-51
2022/08/09 07:32:32;;;;;;;7.60;5.27;;;20.20;99.90;;;;;;5020426;28;20218;-52
2022/08/09 07:35:04;;;;;;;5.47;4.33;;;20.40;99.90;;;;;;5022052;28;20222;-50
2022/08/09 07:37:39;;;;;;;5.47;4.83;;;20.50;99.90;;;;;;5021202;28;20258;-48
2022/08/09 07:40:12;;;;;;;6.37;4.63;;;20.10;99.90;;;;;;5022501;28;20643;-51
2022/08/09 07:42:54;;;;;;;5.33;4.10;;;20.10;99.90;;;;;;5021160;28;20220;-52
2022/08/09 07:45:26;;;;;;;6.27;4.67;;;20.40;99.90;;;;;;5021584;28;20227;-52
2022/08/09 07:48:04;;;;;;;4.77;3.80;;;20.20;99.90;;;;;;5020840;28;20247;-50
2022/08/09 07:50:34;;;;;;;5.60;4.47;;;20.50;99.90;;;;;;5015788;28;20225;-51
2022/08/09 07:53:03;;;;;;;5.23;4.27;;;20.50;99.90;;;;;;5020811;28;20304;-50
2022/08/09 07:55:31;;;;;;;6.00;4.33;;;20.50;99.90;;;;;;5020849;28;20227;-49
2022/08/09 07:58:20;;;;;;;6.80;3.90;;;20.60;99.90;;;;;;5021547;28;20243;-47
2022/08/09 08:00:52;;;;;;;4.63;3.53;;;20.60;99.90;;;;;;5018964;28;20205;-48
2022/08/09 08:03:32;;;;;;;7.10;4.30;;;20.70;99.90;;;;;;5021375;28;20290;-49
2022/08/09 08:06:06;;;;;;;6.40;4.00;;;21.20;99.90;;;;;;5020035;28;20205;-49
2022/08/09 08:08:40;;;;;;;5.30;3.17;;;21.20;99.90;;;;;;5020916;28;20243;-48
2022/08/09 08:11:27;;;;;;;5.23;3.17;;;21.10;99.90;;;;;;5019238;28;20568;-48
2022/08/09 08:14:17;;;;;;;4.83;3.57;;;21.20;99.90;;;;;;5019889;28;20730;-49
2022/08/09 08:16:46;;;;;;;5.23;3.07;;;21.40;99.90;;;;;;5019474;28;20255;-48
2022/08/09 08:19:34;;;;;;;5.73;3.30;;;21.50;99.90;;;;;;5020252;28;20215;-49
2022/08/09 08:22:01;;;;;;;5.60;2.90;;;22.20;99.90;;;;;;5019987;28;20209;-48
2022/08/09 08:24:29;;;;;;;4.17;3.00;;;22.20;99.90;;;;;;5020169;28;20213;-49
2022/08/09 08:27:09;;;;;;;3.97;2.50;;;22.00;99.90;;;;;;5019724;28;20263;-49
2022/08/09 08:29:43;;;;;;;4.00;2.27;;;21.80;99.90;;;;;;5020745;28;20217;-48
2022/08/09 08:32:21;;;;;;;5.43;2.20;;;21.60;99.90;;;;;;5020471;28;20272;-48
2022/08/09 08:34:58;;;;;;;2.53;2.17;;;21.70;99.90;;;;;;5020387;28;20696;-51
2022/08/09 08:37:28;;;;;;;4.90;2.00;;;22.10;99.90;;;;;;5019499;28;20284;-49
2022/08/09 08:40:18;;;;;;;3.70;2.10;;;22.80;99.90;;;;;;5006539;28;20207;-50
2022/08/09 08:42:45;;;;;;;3.53;1.70;;;23.40;99.90;;;;;;5015218;28;20294;-49
2022/08/09 08:45:15;;;;;;;3.67;1.80;;;23.10;99.90;;;;;;5019858;28;20622;-48
2022/08/09 08:47:44;;;;;;;7.00;2.00;;;23.80;99.90;;;;;;5018738;28;20752;-49
2022/08/09 08:50:15;;;;;;;2.67;1.80;;;23.80;99.90;;;;;;5020612;28;20575;-49
2022/08/09 08:52:44;;;;;;;2.47;1.37;;;23.60;99.90;;;;;;5019895;28;20216;-49
2022/08/09 08:55:26;;;;;;;3.38;1.55;;;23.90;99.90;;;;;;5018862;28;20740;-50
2022/08/09 08:57:54;;;;;;;3.78;1.60;;;24.00;99.90;;;;;;5019156;28;21072;-51
2022/08/09 09:00:27;;;;;;;2.17;1.30;;;24.70;99.90;;;;;;5019766;28;20267;-51
2022/08/09 09:03:02;;;;;;;4.83;1.30;;;24.90;99.90;;;;;;5018913;28;20208;-50
2022/08/09 09:05:44;;;;;;;3.43;1.37;;;25.30;99.90;;;;;;5019143;28;20220;-50
2022/08/09 09:08:33;;;;;;;2.37;1.20;;;26.20;99.90;;;;;;5019371;28;20264;-51
2022/08/09 09:11:06;;;;;;;3.73;1.30;;;26.60;99.90;;;;;;5019780;28;20201;-49
2022/08/09 09:13:38;;;;;;;3.13;1.13;;;26.30;99.90;;;;;;5020474;28;20205;-52
2022/08/09 09:16:30;;;;;;;1.90;1.27;;;27.00;99.90;;;;;;5020041;28;20212;-50
2022/08/09 09:19:03;;;;;;;4.80;1.40;;;27.70;99.90;;;;;;5019448;28;20238;-50
2022/08/09 09:22:05;;;;;;;2.70;1.17;;;27.20;99.90;;;;;;5019729;28;20266;-49
2022/08/09 09:24:43;;;;;;;1.73;0.90;;;28.10;99.90;;;;;;5018812;28;20207;-49
2022/08/09 09:27:16;;;;;;;1.23;0.80;;;28.20;99.90;;;;;;5018761;28;20723;-49
2022/08/09 09:30:13;;;;;;;1.77;1.10;;;27.60;99.90;;;;;;5018835;28;20263;-51
2022/08/09 09:33:10;;;;;;;2.63;1.07;;;27.40;99.90;;;;;;5019003;28;20212;-49
2022/08/09 09:35:57;;;;;;;1.80;0.70;;;27.30;99.90;;;;;;5018867;28;20208;-49
2022/08/09 09:38:44;;;;;;;2.20;0.83;;;26.60;99.90;;;;;;5019822;28;20225;-52
2022/08/09 09:41:25;;;;;;;2.07;0.70;;;27.30;99.90;;;;;;5019778;28;20197;-49
2022/08/09 09:44:02;;;;;;;0.90;0.70;;;27.50;99.90;;;;;;5018672;28;20247;-52
2022/08/09 09:46:42;;;;;;;1.80;0.70;;;26.80;99.90;;;;;;5019145;28;20209;-49
2022/08/09 09:49:24;;;;;;;0.95;0.40;;;26.20;99.90;;;;;;5018302;28;20196;-52
2022/08/09 09:52:11;;;;;;;2.25;0.85;;;26.00;99.90;;;;;;5020122;28;20304;-50
2022/08/09 09:55:04;;;;;;;1.23;0.90;;;25.60;99.90;;;;;;5019371;28;20241;-51
2022/08/09 09:58:00;;;;;;;1.20;0.68;;;26.60;99.90;;;;;;5020374;28;20251;-50
2022/08/09 10:00:45;;;;;;;2.10;0.88;;;26.50;99.90;;;;;;5019373;28;20209;-54
2022/08/09 10:03:45;;;;;;;1.98;1.20;;;25.50;99.90;;;;;;5018013;28;20727;-50
2022/08/09 10:06:26;;;;;;;1.40;0.90;;;25.10;99.90;;;;;;5018933;28;20693;-51
2022/08/09 10:09:01;;;;;;;1.45;1.25;;;25.20;99.90;;;;;;5018426;28;20205;-51
2022/08/09 10:11:38;;;;;;;1.48;0.80;;;24.70;99.90;;;;;;5018529;28;20259;-49
2022/08/09 10:14:27;;;;;;;3.90;0.90;;;24.80;99.90;;;;;;5019428;28;20247;-51
2022/08/09 10:17:10;;;;;;;2.20;1.10;;;24.20;99.90;;;;;;5019194;28;20576;-50
2022/08/09 10:19:58;;;;;;;2.75;0.80;;;24.50;99.90;;;;;;5019491;28;20264;-52
2022/08/09 10:22:34;;;;;;;2.53;0.80;;;24.50;99.90;;;;;;5015934;28;20209;-54
2022/08/09 10:25:07;;;;;;;1.70;0.60;;;25.10;99.90;;;;;;5020080;28;20208;-49
2022/08/09 10:27:43;;;;;;;2.10;0.70;;;25.20;99.90;;;;;;5018447;28;20234;-50
2022/08/09 10:30:27;;;;;;;1.63;0.52;;;25.20;99.90;;;;;;5019674;28;20205;-48
2022/08/09 10:33:15;;;;;;;0.83;0.57;;;25.00;99.90;;;;;;5018900;28;20213;-49
2022/08/09 10:36:04;;;;;;;0.93;0.57;;;25.00;99.90;;;;;;5019190;28;20244;-49
2022/08/09 10:38:37;;;;;;;1.90;0.70;;;25.10;99.90;;;;;;5023458;28;20225;-48
2022/08/09 10:41:23;;;;;;;1.40;0.80;;;24.70;99.90;;;;;;5021799;28;20201;-50
2022/08/09 10:43:51;;;;;;;1.53;0.60;;;24.50;99.90;;;;;;5021432;28;20661;-51
2022/08/09 10:46:36;;;;;;;2.47;0.60;;;24.50;99.90;;;;;;5021538;28;20270;-51
2022/08/09 10:49:45;;;;;;;0.87;0.57;;;24.50;99.90;;;;;;5022191;28;20671;-49
2022/08/09 10:52:32;;;;;;;2.33;0.60;;;24.40;99.90;;;;;;5051392;28;20209;-49
2022/08/09 10:55:39;;;;;;;1.23;0.70;;;24.50;99.90;;;;;;5022563;28;20250;-49
2022/08/09 10:58:32;;;;;;;1.80;0.50;;;24.60;99.90;;;;;;5001432;28;20234;-49
2022/08/09 11:01:01;;;;;;;1.83;0.60;;;25.10;99.90;;;;;;5001351;28;20203;-48
2022/08/09 11:04:19;;;;;;;1.10;0.63;;;25.20;99.90;;;;;;5000968;28;20223;-51
2022/08/09 11:06:57;;;;;;;1.10;0.50;;;25.30;99.90;;;;;;5000019;28;20594;-50
2022/08/09 11:09:38;;;;;;;1.80;0.43;;;25.60;99.90;;;;;;4983737;28;20576;-48
2022/08/09 11:12:13;;;;;;;2.10;0.60;;;26.10;99.90;;;;;;5000814;28;20819;-48
2022/08/09 11:14:53;;;;;;;2.50;0.60;;;26.30;99.90;;;;;;5001351;28;20220;-48
2022/08/09 11:17:25;;;;;;;1.33;0.63;;;26.30;99.90;;;;;;4999982;28;20753;-48
2022/08/09 11:20:00;;;;;;;1.80;0.57;;;26.80;99.90;;;;;;4999976;28;20212;-49
2022/08/09 11:22:46;;;;;;;1.33;0.50;;;27.30;99.90;;;;;;5001088;28;20707;-50
2022/08/09 11:25:27;;;;;;;1.40;0.60;;;27.30;99.90;;;;;;4999777;28;20208;-49
2022/08/09 11:28:35;;;;;;;1.67;0.63;;;27.90;99.90;;;;;;5005292;28;20306;-51
2022/08/09 11:31:48;;;;;;;2.97;1.00;;;27.70;99.90;;;;;;5021058;28;20224;-51
2022/08/09 11:34:41;;;;;;;0.80;0.50;;;27.50;99.90;;;;;;5021623;28;20668;-50
2022/08/09 11:37:10;;;;;;;1.53;0.60;;;27.90;99.90;;;;;;5003998;28;20201;-49
2022/08/09 11:40:02;;;;;;;2.53;0.70;;;27.20;99.90;;;;;;5022334;28;20213;-50
2022/08/09 11:42:47;;;;;;;1.73;0.60;;;28.60;99.90;;;;;;5020208;28;20208;-50
2022/08/09 11:45:22;;;;;;;1.30;0.50;;;29.20;99.90;;;;;;5020811;28;20201;-50
2022/08/09 11:48:20;;;;;;;4.22;0.93;;;29.40;99.90;;;;;;5046809;28;20209;-50
2022/08/09 11:51:06;;;;;;;0.77;0.63;;;28.90;99.90;;;;;;5020572;28;20684;-51
2022/08/09 11:54:16;;;;;;;3.28;0.80;;;29.80;99.90;;;;;;5019796;28;20249;-50
2022/08/09 11:57:43;;;;;;;0.82;0.50;;;29.60;99.90;;;;;;5022911;28;20208;-49
2022/08/09 12:00:31;;;;;;;1.80;0.80;;;29.80;99.90;;;;;;5020560;28;20631;-52
2022/08/09 12:03:00;;;;;;;2.75;0.95;;;30.90;99.90;;;;;;5019029;28;20208;-52
2022/08/09 12:05:49;;;;;;;1.00;0.60;;;29.10;99.90;;;;;;5020696;28;20723;-53
2022/08/09 12:08:17;;;;;;;2.15;0.60;;;30.60;99.90;;;;;;5028088;28;20297;-52
2022/08/09 12:10:55;;;;;;;2.95;0.70;;;30.30;99.90;;;;;;5021038;28;20691;-50
2022/08/09 12:13:36;;;;;;;1.30;0.65;;;30.10;99.90;;;;;;5020653;28;20236;-51
2022/08/09 12:16:34;;;;;;;1.70;0.90;;;29.20;99.90;;;;;;5019973;28;20209;-49
2022/08/09 12:19:10;;;;;;;1.00;0.50;;;29.50;99.90;;;;;;5020294;28;20287;-51
2022/08/09 12:21:42;;;;;;;5.30;0.80;;;28.80;99.90;;;;;;5021360;28;20239;-49
2022/08/09 12:24:22;;;;;;;1.95;0.60;;;28.50;99.90;;;;;;5019306;28;20200;-50
2022/08/09 12:26:55;;;;;;;1.05;0.50;;;29.00;99.90;;;;;;5020186;28;20201;-49
2022/08/09 12:29:52;;;;;;;1.33;0.63;;;29.70;99.90;;;;;;5019513;28;20213;-52
2022/08/09 12:32:39;;;;;;;2.25;0.50;;;30.70;99.90;;;;;;5020189;28;20240;-51
2022/08/09 12:35:07;;;;;;;3.10;0.60;;;31.10;99.90;;;;;;5020222;28;20268;-51
2022/08/09 12:37:39;;;;;;;1.35;0.47;;;30.40;99.90;;;;;;5020050;28;20212;-50
2022/08/09 12:40:17;;;;;;;0.77;0.45;;;30.40;99.90;;;;;;5018851;28;20204;-51
2022/08/09 12:42:45;;;;;;;1.45;0.50;;;31.10;99.90;;;;;;5014999;28;20205;-51
2022/08/09 12:45:17;;;;;;;0.75;0.50;;;29.90;99.90;;;;;;5019706;28;20206;-51
2022/08/09 12:48:08;;;;;;;1.33;0.68;;;31.20;99.90;;;;;;5031914;28;20664;-50
2022/08/09 12:50:55;;;;;;;1.58;0.60;;;30.50;99.90;;;;;;5021054;28;20212;-53
2022/08/09 12:53:26;;;;;;;0.98;0.60;;;31.30;99.90;;;;;;5020430;28;20632;-51
2022/08/09 12:56:18;;;;;;;1.08;0.50;;;31.90;99.90;;;;;;5019800;28;20213;-50
2022/08/09 12:59:19;;;;;;;2.92;0.65;;;31.40;99.90;;;;;;5020630;28;20227;-51
2022/08/09 13:01:58;;;;;;;1.95;0.57;;;30.30;99.90;;;;;;5019567;28;20203;-51
2022/08/09 13:04:26;;;;;;;1.77;0.55;;;30.20;99.90;;;;;;5016273;28;20635;-51
2022/08/09 13:07:15;;;;;;;2.40;0.63;;;29.90;99.90;;;;;;5019977;28;20201;-51
2022/08/09 13:10:04;;;;;;;1.88;0.50;;;30.40;99.90;;;;;;5018917;28;20209;-51
2022/08/09 13:12:31;;;;;;;1.00;0.60;;;30.50;99.90;;;;;;5018142;28;20452;-49
2022/08/09 13:15:07;;;;;;;3.13;0.80;;;30.40;99.90;;;;;;5026198;28;20207;-53
2022/08/09 13:17:35;;;;;;;2.83;0.70;;;30.10;99.90;;;;;;5020593;28;20215;-50
2022/08/09 13:20:33;;;;;;;0.80;0.50;;;30.00;99.90;;;;;;5018717;28;20217;-50
2022/08/09 13:23:16;;;;;;;2.20;0.50;;;30.80;99.90;;;;;;5020594;28;20208;-51
2022/08/09 13:26:09;;;;;;;2.40;0.43;;;31.30;99.90;;;;;;5019053;28;20221;-51
2022/08/09 13:28:37;;;;;;;1.42;0.70;;;30.50;99.90;;;;;;5019152;28;20201;-50
2022/08/09 13:31:10;;;;;;;0.88;0.32;;;29.30;99.90;;;;;;5018761;28;20292;-51
2022/08/09 13:33:57;;;;;;;6.90;0.93;;;30.10;99.90;;;;;;5019155;28;20209;-51
2022/08/09 13:36:25;;;;;;;1.67;0.50;;;30.90;99.90;;;;;;5018991;28;20216;-52
2022/08/09 13:39:13;;;;;;;0.95;0.60;;;30.80;99.90;;;;;;5019339;28;20249;-53
2022/08/09 13:42:02;;;;;;;1.00;0.60;;;29.50;99.90;;;;;;5018034;28;20204;-51
2022/08/09 13:44:30;;;;;;;1.63;0.60;;;30.60;99.90;;;;;;5019617;28;20205;-51
2022/08/09 13:46:57;;;;;;;1.30;0.60;;;31.20;99.90;;;;;;5017856;28;20201;-50
2022/08/09 13:49:44;;;;;;;1.17;0.70;;;30.30;99.90;;;;;;5019172;28;20416;-51
2022/08/09 13:52:27;;;;;;;1.38;0.45;;;30.10;99.90;;;;;;5019760;28;20204;-50